createdAt,value
2019-03-28T00:00:51.833Z,24.97
2019-03-28T00:03:23.469Z,21.77
2019-03-28T00:05:54.822Z,27.23
2019-03-28T00:50:13.033Z,21.43
2019-03-28T00:52:43.317Z,18.47
2019-03-28T00:55:13.821Z,22.47
2019-03-28T00:57:45.580Z,23.40
2019-03-28T01:00:17.577Z,20.90
2019-03-28T01:02:50.799Z,24.17
2019-03-28T01:05:21.007Z,20.83
2019-03-28T01:07:51.796Z,15.77
2019-03-28T01:10:23.780Z,16.27
2019-03-28T01:12:54.193Z,16.23
2019-03-28T01:15:24.404Z,16.47
2019-03-28T01:17:55.136Z,17.13
2019-03-28T01:20:26.228Z,23.17
2019-03-28T01:22:56.775Z,15.93
2019-03-28T01:25:27.538Z,17.10
2019-03-28T01:27:57.951Z,13.20
2019-03-28T01:30:31.605Z,17.10
2019-03-28T01:33:02.107Z,13.67
2019-03-28T01:35:33.218Z,13.13
2019-03-28T01:38:08.914Z,17.30
2019-03-28T01:40:39.376Z,15.57
2019-03-28T01:43:09.984Z,13.60
2019-03-28T01:45:40.201Z,16.20
2019-03-28T01:48:10.506Z,15.10
2019-03-28T01:50:43.991Z,14.77
2019-03-28T01:53:14.216Z,16.83
2019-03-28T01:55:46.547Z,18.07
2019-03-28T01:58:16.785Z,22.63
2019-03-28T02:00:47.071Z,15.77
2019-03-28T02:03:17.290Z,22.53
2019-03-28T02:05:47.539Z,19.87
2019-03-28T02:08:17.695Z,20.43
2019-03-28T02:10:47.833Z,22.00
2019-03-28T02:13:18.030Z,20.43
2019-03-28T02:15:49.350Z,16.23
2019-03-28T02:18:19.515Z,22.67
2019-03-28T02:20:49.695Z,20.77
2019-03-28T02:23:19.837Z,26.53
2019-03-28T02:25:50.939Z,21.20
2019-03-28T02:28:21.225Z,24.37
2019-03-28T02:30:51.318Z,19.53
2019-03-28T02:33:21.500Z,22.77
2019-03-28T02:35:51.963Z,22.37
2019-03-28T02:38:22.360Z,22.43
2019-03-28T02:40:52.754Z,13.80
2019-03-28T02:43:23.050Z,20.00
2019-03-28T02:45:54.158Z,19.83
2019-03-28T02:48:24.509Z,20.17
2019-03-28T02:50:54.613Z,22.90
2019-03-28T02:53:24.697Z,22.37
2019-03-28T02:55:57.694Z,23.03
2019-03-28T02:58:27.936Z,25.53
2019-03-28T03:00:58.342Z,23.83
2019-03-28T03:03:28.480Z,21.93
2019-03-28T03:05:58.546Z,18.60
2019-03-28T03:08:28.789Z,19.70
2019-03-28T03:10:58.974Z,15.63
2019-03-28T03:13:29.110Z,14.60
2019-03-28T03:15:59.775Z,11.47
2019-03-28T03:18:30.229Z,17.20
2019-03-28T03:21:00.708Z,15.50
2019-03-28T03:23:33.907Z,12.83
2019-03-28T03:26:04.726Z,16.60
2019-03-28T03:28:35.109Z,13.87
2019-03-28T03:31:12.360Z,14.73
2019-03-28T03:33:46.362Z,15.10
2019-03-28T03:36:16.996Z,14.07
2019-03-28T03:38:47.806Z,13.73
2019-03-28T03:41:18.172Z,11.53
2019-03-28T03:43:51.253Z,20.03
2019-03-28T03:46:24.248Z,24.23
2019-03-28T03:48:54.728Z,19.77
2019-03-28T03:51:25.786Z,19.20
2019-03-28T03:54:01.210Z,16.43
2019-03-28T03:56:31.875Z,24.40
2019-03-28T03:59:02.615Z,21.27
2019-03-28T04:01:34.162Z,34.67
2019-03-28T04:04:06.069Z,19.40
2019-03-28T04:06:36.776Z,24.07
2019-03-28T04:09:11.595Z,24.93
2019-03-28T04:11:41.957Z,19.37
2019-03-28T04:14:12.313Z,20.93
2019-03-28T04:16:43.194Z,12.27
2019-03-28T04:19:13.947Z,15.63
2019-03-28T04:21:45.524Z,14.60
2019-03-28T04:24:16.544Z,15.20
2019-03-28T04:26:46.916Z,19.57
2019-03-28T04:29:19.289Z,12.77
2019-03-28T04:31:49.851Z,21.60
2019-03-28T04:34:20.332Z,15.23
2019-03-28T04:36:53.364Z,14.67
2019-03-28T04:39:24.719Z,15.27
2019-03-28T04:41:55.207Z,17.77
2019-03-28T04:44:26.982Z,21.07
2019-03-28T04:46:59.754Z,16.63
2019-03-28T04:49:32.308Z,16.00
2019-03-28T04:52:02.604Z,22.53
2019-03-28T04:54:32.986Z,25.17
2019-03-28T04:57:05.105Z,27.83
2019-03-28T04:59:35.830Z,32.63
2019-03-28T05:02:07.569Z,37.70
2019-03-28T05:04:38.138Z,29.97
2019-03-28T05:07:10.189Z,20.27
2019-03-28T05:09:42.692Z,26.90
2019-03-28T05:12:13.014Z,26.13
2019-03-28T05:14:44.830Z,24.93
2019-03-28T05:17:15.327Z,26.37
2019-03-28T05:19:48.751Z,29.13
2019-03-28T05:22:19.385Z,26.07
2019-03-28T05:24:49.708Z,26.77
2019-03-28T05:27:20.566Z,28.70
2019-03-28T05:29:52.398Z,27.57
2019-03-28T05:32:22.772Z,27.93
2019-03-28T05:34:53.109Z,31.63
2019-03-28T05:37:23.328Z,28.20
2019-03-28T05:39:54.736Z,23.23
2019-03-28T05:42:25.178Z,22.43
2019-03-28T05:44:57.684Z,30.20
2019-03-28T05:47:28.225Z,35.23
2019-03-28T05:49:59.221Z,39.90
2019-03-28T05:52:33.596Z,40.73
2019-03-28T05:55:05.461Z,39.40
2019-03-28T05:57:37.851Z,37.33
2019-03-28T06:00:08.865Z,36.47
2019-03-28T06:02:40.475Z,39.93
2019-03-28T06:05:11.038Z,37.00
2019-03-28T06:07:41.328Z,40.90
2019-03-28T06:10:12.596Z,47.13
2019-03-28T06:12:44.345Z,40.73
2019-03-28T06:15:17.113Z,46.07
2019-03-28T06:17:47.567Z,43.27
2019-03-28T06:20:18.453Z,45.67
2019-03-28T06:22:48.866Z,42.77
2019-03-28T06:25:23.288Z,36.07
2019-03-28T06:27:53.828Z,43.00
2019-03-28T06:30:27.239Z,35.53
2019-03-28T06:32:59.665Z,48.70
2019-03-28T06:35:30.034Z,41.23
2019-03-28T06:38:00.595Z,35.47
2019-03-28T06:40:31.447Z,48.00
2019-03-28T06:43:04.009Z,40.67
2019-03-28T06:45:34.409Z,35.03
2019-03-28T06:48:06.506Z,27.97
2019-03-28T06:50:36.845Z,24.43
2019-03-28T06:53:07.630Z,25.20
2019-03-28T06:55:39.618Z,28.80
2019-03-28T06:58:11.730Z,20.73
2019-03-28T07:00:43.583Z,27.97
2019-03-28T07:03:16.679Z,24.87
2019-03-28T07:06:04.871Z,22.03
2019-03-28T07:08:35.414Z,27.03
2019-03-28T07:11:10.573Z,20.57
2019-03-28T07:13:42.397Z,20.67
2019-03-28T07:16:13.665Z,16.67
2019-03-28T07:18:47.080Z,17.17
2019-03-28T07:21:18.581Z,16.73
2019-03-28T07:23:51.384Z,19.63
2019-03-28T07:26:23.284Z,20.97
2019-03-28T07:28:54.475Z,17.03
2019-03-28T07:31:29.077Z,14.20
2019-03-28T07:33:59.444Z,17.33
2019-03-28T07:36:32.930Z,19.47
2019-03-28T07:39:03.768Z,19.80
2019-03-28T07:41:34.044Z,21.30
2019-03-28T07:44:05.753Z,21.80
2019-03-28T07:46:38.469Z,21.60
2019-03-28T07:49:10.815Z,15.03
2019-03-28T07:51:45.274Z,16.17
2019-03-28T07:54:16.098Z,28.30
2019-03-28T07:56:49.490Z,21.47
2019-03-28T07:59:20.263Z,22.50
2019-03-28T08:01:51.772Z,21.67
2019-03-28T08:04:22.246Z,23.17
2019-03-28T08:06:54.786Z,15.07
2019-03-28T08:09:36.405Z,22.43
2019-03-28T08:12:01.324Z,17.13
2019-03-28T08:14:32.075Z,16.63
2019-03-28T08:17:02.594Z,19.63
2019-03-28T08:19:33.173Z,19.43
2019-03-28T08:22:03.759Z,19.67
2019-03-28T08:24:36.699Z,22.27
2019-03-28T08:27:08.722Z,18.27
2019-03-28T08:29:39.037Z,21.40
2019-03-28T08:32:13.759Z,18.47
2019-03-28T08:34:45.743Z,20.83
2019-03-28T08:37:24.308Z,22.43
2019-03-28T08:39:56.168Z,20.90
2019-03-28T08:42:29.466Z,15.93
2019-03-28T08:45:01.227Z,15.87
2019-03-28T08:47:31.469Z,17.60
2019-03-28T08:50:03.173Z,18.83
2019-03-28T08:52:33.460Z,17.27
2019-03-28T08:55:09.955Z,15.97
2019-03-28T08:57:40.351Z,16.63
2019-03-28T09:00:16.354Z,17.17
2019-03-28T09:02:46.641Z,16.43
2019-03-28T09:05:17.018Z,21.60
2019-03-28T09:07:47.753Z,17.10
2019-03-28T09:10:18.665Z,16.07
2019-03-28T09:12:50.420Z,18.23
2019-03-28T09:15:20.783Z,14.47
2019-03-28T09:17:53.312Z,15.97
2019-03-28T09:20:25.878Z,13.03
2019-03-28T09:22:57.205Z,13.13
2019-03-28T09:25:28.325Z,14.40
2019-03-28T09:28:00.986Z,20.17
2019-03-28T09:30:47.518Z,16.17
2019-03-28T09:33:10.182Z,13.33
2019-03-28T09:35:48.270Z,14.13
2019-03-28T09:38:20.563Z,13.40
2019-03-28T09:40:54.082Z,14.00
2019-03-28T09:43:26.848Z,16.20
2019-03-28T09:46:00.260Z,13.00
2019-03-28T09:48:29.322Z,12.43
2019-03-28T09:51:01.259Z,14.70
2019-03-28T09:53:33.531Z,11.03
2019-03-28T09:56:08.476Z,13.23
2019-03-28T09:58:40.401Z,14.20
2019-03-28T10:01:11.045Z,12.27
2019-03-28T10:03:42.735Z,16.37
2019-03-28T10:06:12.912Z,13.23
2019-03-28T10:08:43.663Z,12.50
2019-03-28T10:11:13.928Z,12.20
2019-03-28T10:13:44.157Z,15.73
2019-03-28T10:16:15.937Z,13.30
2019-03-28T10:18:46.826Z,12.23
2019-03-28T10:21:18.427Z,12.60
2019-03-28T10:23:50.980Z,11.80
2019-03-28T10:26:22.394Z,10.33
2019-03-28T10:28:52.593Z,10.83
2019-03-28T10:31:22.975Z,10.80
2019-03-28T10:33:54.387Z,19.70
2019-03-28T10:36:27.685Z,12.23
2019-03-28T10:39:00.201Z,24.13
2019-03-28T10:41:34.760Z,9.67
2019-03-28T10:44:05.018Z,10.23
2019-03-28T10:46:35.375Z,8.93
2019-03-28T10:49:05.770Z,8.57
2019-03-28T10:51:37.261Z,10.03
2019-03-28T10:54:19.471Z,10.13
2019-03-28T10:56:51.712Z,9.27
2019-03-28T10:59:23.517Z,18.30
2019-03-28T11:01:51.313Z,12.90
2019-03-28T11:04:23.121Z,7.83
2019-03-28T11:06:53.607Z,11.70
2019-03-28T11:09:28.760Z,8.53
2019-03-28T11:11:59.066Z,11.40
2019-03-28T11:14:31.132Z,10.50
2019-03-28T11:17:08.565Z,8.70
2019-03-28T11:19:39.255Z,7.10
2019-03-28T11:22:12.069Z,7.87
2019-03-28T11:24:46.539Z,8.90
2019-03-28T11:27:17.164Z,7.57
2019-03-28T11:29:47.395Z,9.73
2019-03-28T11:32:20.906Z,9.23
2019-03-28T11:34:51.448Z,18.37
2019-03-28T11:37:26.346Z,10.30
2019-03-28T11:39:53.694Z,8.37
2019-03-28T11:42:24.190Z,8.67
2019-03-28T11:44:57.118Z,10.97
2019-03-28T11:47:28.796Z,8.20
2019-03-28T11:50:00.409Z,11.23
2019-03-28T11:52:33.233Z,10.27
2019-03-28T11:55:05.934Z,16.23
2019-03-28T11:57:36.552Z,11.83
2019-03-28T12:00:08.529Z,10.27
2019-03-28T12:02:39.045Z,9.47
2019-03-28T12:05:14.086Z,15.57
2019-03-28T12:07:44.750Z,11.37
2019-03-28T12:10:16.981Z,22.23
2019-03-28T12:12:51.991Z,8.50
2019-03-28T12:15:24.204Z,11.63
2019-03-28T12:17:57.384Z,11.37
2019-03-28T12:20:27.776Z,12.20
2019-03-28T12:22:59.492Z,10.23
2019-03-28T12:25:29.975Z,13.70
2019-03-28T12:28:00.631Z,15.13
2019-03-28T12:30:30.978Z,21.37
2019-03-28T12:33:04.279Z,16.53
2019-03-28T12:35:38.268Z,10.90
2019-03-28T12:38:08.550Z,22.63
2019-03-28T12:40:41.936Z,8.77
2019-03-28T12:43:17.776Z,12.53
2019-03-28T12:45:50.515Z,9.83
2019-03-28T12:48:23.073Z,11.97
2019-03-28T12:50:59.104Z,10.90
2019-03-28T12:53:27.522Z,14.33
2019-03-28T12:56:00.186Z,10.47
2019-03-28T12:58:31.547Z,9.80
2019-03-28T13:01:02.127Z,8.33
2019-03-28T13:03:44.848Z,9.63
2019-03-28T13:06:06.230Z,11.20
2019-03-28T13:08:36.695Z,8.77
2019-03-28T13:11:09.265Z,15.20
2019-03-28T13:13:39.538Z,11.10
2019-03-28T13:16:09.884Z,14.53
2019-03-28T13:18:41.292Z,9.27
2019-03-28T13:21:14.537Z,14.57
2019-03-28T13:23:45.157Z,9.97
2019-03-28T13:26:17.461Z,14.50
2019-03-28T13:28:49.109Z,12.37
2019-03-28T13:31:19.718Z,11.87
2019-03-28T13:33:51.998Z,15.73
2019-03-28T13:36:23.417Z,11.17
2019-03-28T13:38:55.423Z,16.37
2019-03-28T13:41:27.302Z,13.83
2019-03-28T13:44:00.305Z,11.83
2019-03-28T13:46:32.639Z,11.30
2019-03-28T13:49:03.241Z,40.00
2019-03-28T13:51:33.914Z,12.07
2019-03-28T13:54:05.840Z,12.90
2019-03-28T13:56:38.384Z,15.47
2019-03-28T13:59:09.131Z,11.73
2019-03-28T14:01:40.909Z,12.33
2019-03-28T14:04:11.389Z,10.10
2019-03-28T14:06:42.365Z,11.80
2019-03-28T14:09:14.732Z,15.20
2019-03-28T14:11:46.752Z,23.00
2019-03-28T14:14:18.720Z,17.80
2019-03-28T14:16:53.153Z,12.27
2019-03-28T14:19:23.216Z,10.30
2019-03-28T14:21:53.526Z,13.00
2019-03-28T14:24:24.059Z,11.90
2019-03-28T14:26:55.497Z,9.77
2019-03-28T14:29:29.977Z,9.90
2019-03-28T14:32:02.139Z,12.37
2019-03-28T14:34:32.630Z,13.33
2019-03-28T14:37:05.549Z,9.07
2019-03-28T14:39:37.651Z,12.13
2019-03-28T14:42:08.024Z,11.30
2019-03-28T14:44:38.969Z,11.50
2019-03-28T14:47:09.574Z,15.27
2019-03-28T14:49:41.747Z,12.33
2019-03-28T14:52:12.765Z,9.43
2019-03-28T14:54:43.563Z,12.00
2019-03-28T14:57:18.999Z,15.37
2019-03-28T14:59:50.411Z,20.70
2019-03-28T15:02:20.790Z,12.40
2019-03-28T15:04:54.368Z,13.07
2019-03-28T15:07:25.563Z,10.37
2019-03-28T15:09:56.633Z,17.70
2019-03-28T15:12:31.033Z,12.07
2019-03-28T15:15:05.926Z,14.43
2019-03-28T15:17:41.396Z,16.03
2019-03-28T15:20:14.428Z,11.27
2019-03-28T15:22:45.448Z,13.17
2019-03-28T15:25:18.697Z,15.83
2019-03-28T15:27:50.497Z,19.37
2019-03-28T15:30:20.910Z,19.73
2019-03-28T15:32:51.166Z,16.43
2019-03-28T15:35:21.803Z,15.20
2019-03-28T15:37:53.368Z,19.37
2019-03-28T15:40:26.968Z,23.30
2019-03-28T15:42:57.287Z,14.77
2019-03-28T15:45:27.553Z,22.50
2019-03-28T15:47:58.694Z,23.20
2019-03-28T15:50:29.318Z,21.03
2019-03-28T15:53:00.994Z,20.33
2019-03-28T15:55:41.611Z,24.87
2019-03-28T15:58:22.983Z,35.03
2019-03-28T16:00:48.841Z,18.00
2019-03-28T16:03:21.061Z,12.90
2019-03-28T16:05:58.167Z,15.93
2019-03-28T16:08:24.096Z,15.50
2019-03-28T16:10:54.777Z,45.70
2019-03-28T16:13:26.920Z,15.30
2019-03-28T16:15:57.565Z,19.93
2019-03-28T16:18:28.062Z,18.97
2019-03-28T16:20:58.641Z,26.57
2019-03-28T16:23:29.591Z,40.53
2019-03-28T16:26:03.385Z,15.20
2019-03-28T16:28:33.721Z,25.97
2019-03-28T16:31:04.391Z,17.30
2019-03-28T16:33:34.447Z,19.10
2019-03-28T16:36:04.780Z,21.30
2019-03-28T16:38:38.089Z,21.07
2019-03-28T16:41:08.430Z,22.80
2019-03-28T16:43:38.936Z,14.93
2019-03-28T16:46:11.772Z,24.53
2019-03-28T16:48:42.460Z,20.93
2019-03-28T16:51:17.368Z,18.47
2019-03-28T16:53:46.295Z,16.20
2019-03-28T16:56:18.063Z,19.20
2019-03-28T16:58:49.868Z,24.07
2019-03-28T17:01:21.771Z,17.80
2019-03-28T17:03:52.566Z,17.07
2019-03-28T17:06:26.212Z,24.50
2019-03-28T17:08:58.869Z,26.97
2019-03-28T17:11:29.232Z,21.10
2019-03-28T17:14:03.055Z,22.50
2019-03-28T17:16:34.797Z,21.47
2019-03-28T17:19:05.125Z,24.10
2019-03-28T17:21:39.750Z,51.97
2019-03-28T17:24:11.993Z,33.20
2019-03-28T17:26:42.547Z,30.00
2019-03-28T17:29:14.403Z,22.90
2019-03-28T17:31:45.043Z,33.47
2019-03-28T17:34:15.361Z,35.07
2019-03-28T17:36:45.952Z,29.53
2019-03-28T17:39:17.162Z,54.17
2019-03-28T17:41:47.748Z,39.33
2019-03-28T17:44:18.220Z,31.63
2019-03-28T17:46:50.196Z,23.80
2019-03-28T17:49:21.038Z,21.97
2019-03-28T17:51:53.409Z,29.20
2019-03-28T17:54:25.439Z,21.53
2019-03-28T17:56:55.812Z,14.37
2019-03-28T17:59:28.579Z,27.43
2019-03-28T18:01:59.287Z,30.90
2019-03-28T18:04:29.826Z,24.83
2019-03-28T18:07:02.487Z,20.17
2019-03-28T18:09:33.578Z,27.83
2019-03-28T18:12:03.842Z,32.70
2019-03-28T18:14:33.904Z,36.87
2019-03-28T18:17:04.082Z,32.50
2019-03-28T18:19:34.207Z,41.67
2019-03-28T18:22:04.361Z,29.53
2019-03-28T18:24:35.609Z,31.93
2019-03-28T18:27:05.840Z,47.73
2019-03-28T18:29:36.146Z,48.23
2019-03-28T18:32:06.484Z,34.63
2019-03-28T18:34:36.664Z,28.50
2019-03-28T18:37:06.821Z,32.00
2019-03-28T18:39:36.942Z,39.20
2019-03-28T18:42:07.282Z,31.60
2019-03-28T18:44:37.486Z,39.90
2019-03-28T18:47:07.665Z,57.73
2019-03-28T18:49:37.903Z,68.10
2019-03-28T18:52:08.193Z,62.57
2019-03-28T18:54:38.267Z,78.67
2019-03-28T18:57:08.413Z,77.33
2019-03-28T18:59:38.711Z,80.50
2019-03-28T19:02:10.179Z,71.53
2019-03-28T19:04:40.419Z,79.53
2019-03-28T19:07:12.015Z,83.37
2019-03-28T19:09:43.494Z,67.90
2019-03-28T19:12:13.615Z,67.17
2019-03-28T19:14:46.164Z,71.07
2019-03-28T19:17:15.791Z,74.00
2019-03-28T19:19:46.056Z,62.80
2019-03-28T19:22:16.331Z,55.90
2019-03-28T19:24:46.661Z,56.23
2019-03-28T19:27:16.931Z,59.10
2019-03-28T19:29:47.104Z,52.30
2019-03-28T19:32:17.265Z,41.70
2019-03-28T19:34:47.452Z,48.57
2019-03-28T19:37:18.606Z,44.33
2019-03-28T19:39:48.802Z,46.20
2019-03-28T19:42:22.561Z,40.40
2019-03-28T19:44:51.572Z,63.80
2019-03-28T19:47:21.835Z,41.77
2019-03-28T19:49:52.332Z,39.53
2019-03-28T19:52:22.626Z,51.93
2019-03-28T19:54:52.807Z,46.40
2019-03-28T19:57:23.178Z,54.27
2019-03-28T19:59:58.518Z,59.30
2019-03-28T20:02:29.301Z,63.47
2019-03-28T20:04:59.426Z,65.50
2019-03-28T20:07:29.584Z,123.20
2019-03-28T20:10:00.973Z,95.13
2019-03-28T20:12:31.775Z,95.90
2019-03-28T20:15:03.422Z,95.30
2019-03-28T20:17:33.702Z,95.00
2019-03-28T20:20:06.307Z,84.47
2019-03-28T20:22:36.545Z,47.33
2019-03-28T20:25:07.389Z,45.57
2019-03-28T20:27:37.475Z,48.47
2019-03-28T20:30:08.338Z,41.63
2019-03-28T20:32:38.460Z,47.93
2019-03-28T20:35:11.366Z,55.03
2019-03-28T20:37:41.588Z,48.40
2019-03-28T20:40:15.031Z,42.57
2019-03-28T20:42:47.735Z,81.13
2019-03-28T20:45:19.713Z,59.13
2019-03-28T20:47:50.879Z,62.83
2019-03-28T20:50:21.452Z,55.70
2019-03-28T20:52:53.400Z,47.93
2019-03-28T20:55:23.500Z,53.87
2019-03-28T20:57:53.693Z,54.13
2019-03-28T21:00:43.483Z,60.07
2019-03-28T21:03:15.151Z,42.77
2019-03-28T21:05:47.509Z,74.20
2019-03-28T21:08:19.979Z,59.93
2019-03-28T21:10:50.299Z,60.73
2019-03-28T21:13:20.597Z,52.33
2019-03-28T21:15:50.787Z,53.57
2019-03-28T21:18:23.473Z,58.40
2019-03-28T21:20:53.689Z,64.63
2019-03-28T21:23:29.253Z,71.00
2019-03-28T21:26:00.632Z,64.27
2019-03-28T21:28:30.878Z,51.13
2019-03-28T21:31:01.170Z,41.83
2019-03-28T21:33:31.336Z,51.20
2019-03-28T21:36:01.465Z,40.77
2019-03-28T21:38:31.634Z,39.53
2019-03-28T21:41:03.769Z,48.43
2019-03-28T21:43:33.903Z,38.17
2019-03-28T21:46:06.213Z,37.97
2019-03-28T21:48:36.934Z,29.33
2019-03-28T21:51:07.115Z,31.40
2019-03-28T21:53:37.308Z,29.43
2019-03-28T21:56:08.732Z,27.33
2019-03-28T21:58:38.975Z,28.27
2019-03-28T22:01:09.374Z,29.50
2019-03-28T22:03:40.060Z,26.43
2019-03-28T22:06:10.180Z,25.57
2019-03-28T22:08:40.287Z,28.67
2019-03-28T22:11:11.685Z,36.37
2019-03-28T22:13:43.083Z,49.77
2019-03-28T22:16:13.248Z,42.83
2019-03-28T22:18:43.448Z,40.07
2019-03-28T22:21:13.523Z,38.50
2019-03-28T22:23:43.721Z,28.70
2019-03-28T22:26:14.002Z,32.60
2019-03-28T22:28:44.231Z,32.93
2019-03-28T22:31:14.387Z,33.00
2019-03-28T22:33:44.448Z,27.30
2019-03-28T22:36:15.991Z,31.20
2019-03-28T22:38:47.116Z,24.70
2019-03-28T22:41:18.525Z,25.83
2019-03-28T22:43:50.774Z,34.20
2019-03-28T22:46:20.864Z,23.63
2019-03-28T22:48:51.065Z,24.83
2019-03-28T22:51:21.299Z,21.20
2019-03-28T22:53:51.621Z,23.70
2019-03-28T22:56:23.627Z,24.73
2019-03-28T22:58:55.203Z,23.83
2019-03-28T23:01:26.758Z,21.03
2019-03-28T23:03:57.012Z,15.50
2019-03-28T23:06:27.212Z,19.13
2019-03-28T23:08:57.376Z,21.13
2019-03-28T23:11:27.411Z,17.97
2019-03-28T23:13:59.857Z,18.97
2019-03-28T23:16:32.745Z,16.97
2019-03-28T23:19:03.085Z,22.90
2019-03-28T23:21:33.286Z,18.37
2019-03-28T23:24:04.410Z,18.07
2019-03-28T23:26:34.910Z,15.37
2019-03-28T23:29:07.099Z,13.40
2019-03-28T23:31:39.501Z,22.50
2019-03-28T23:34:11.376Z,17.13
2019-03-28T23:36:41.559Z,15.27
2019-03-28T23:39:11.780Z,20.13
2019-03-28T23:41:42.076Z,20.30
2019-03-28T23:44:12.294Z,14.77
2019-03-28T23:46:43.530Z,15.53
2019-03-28T23:49:15.071Z,14.37
2019-03-28T23:51:46.713Z,15.90
2019-03-28T23:54:16.963Z,12.07
2019-03-28T23:56:51.123Z,11.60
2019-03-28T23:59:21.404Z,17.83
